sensor_id;sensor_type;location;lat;lon;timestamp;P1;durP1;ratioP1;P2;durP2;ratioP2
6475;SDS011;3271;51.910;5.840;2022-08-21T00:00:18;4.97;;;3.63;;
6475;SDS011;3271;51.910;5.840;2022-08-21T00:02:55;6.30;;;3.42;;
6475;SDS011;3271;51.910;5.840;2022-08-21T00:05:21;4.03;;;3.33;;
6475;SDS011;3271;51.910;5.840;2022-08-21T00:07:48;6.35;;;3.67;;
6475;SDS011;3271;51.910;5.840;2022-08-21T00:10:14;4.57;;;3.70;;
6475;SDS011;3271;51.910;5.840;2022-08-21T00:12:40;4.68;;;2.80;;
6475;SDS011;3271;51.910;5.840;2022-08-21T00:15:09;4.85;;;2.90;;
6475;SDS011;3271;51.910;5.840;2022-08-21T00:17:35;5.78;;;3.60;;
6475;SDS011;3271;51.910;5.840;2022-08-21T00:20:04;5.18;;;3.20;;
6475;SDS011;3271;51.910;5.840;2022-08-21T00:22:30;6.63;;;3.67;;
6475;SDS011;3271;51.910;5.840;2022-08-21T00:24:56;4.25;;;3.75;;
6475;SDS011;3271;51.910;5.840;2022-08-21T00:27:22;5.40;;;3.70;;
6475;SDS011;3271;51.910;5.840;2022-08-21T00:29:49;4.82;;;3.88;;
6475;SDS011;3271;51.910;5.840;2022-08-21T00:32:19;4.30;;;3.65;;
6475;SDS011;3271;51.910;5.840;2022-08-21T00:34:45;6.10;;;3.40;;
6475;SDS011;3271;51.910;5.840;2022-08-21T00:37:11;5.60;;;3.65;;
6475;SDS011;3271;51.910;5.840;2022-08-21T00:39:37;3.58;;;3.17;;
6475;SDS011;3271;51.910;5.840;2022-08-21T00:42:03;4.95;;;3.50;;
6475;SDS011;3271;51.910;5.840;2022-08-21T00:44:29;5.50;;;3.53;;
6475;SDS011;3271;51.910;5.840;2022-08-21T00:46:56;5.63;;;3.70;;
6475;SDS011;3271;51.910;5.840;2022-08-21T00:49:22;5.40;;;3.72;;
6475;SDS011;3271;51.910;5.840;2022-08-21T00:51:49;5.25;;;4.00;;
6475;SDS011;3271;51.910;5.840;2022-08-21T00:54:15;5.18;;;3.80;;
6475;SDS011;3271;51.910;5.840;2022-08-21T00:56:42;5.43;;;3.85;;
6475;SDS011;3271;51.910;5.840;2022-08-21T00:59:08;4.20;;;3.80;;
6475;SDS011;3271;51.910;5.840;2022-08-21T01:01:35;5.07;;;3.70;;
6475;SDS011;3271;51.910;5.840;2022-08-21T01:04:02;5.68;;;3.97;;
6475;SDS011;3271;51.910;5.840;2022-08-21T01:06:28;5.20;;;4.20;;
6475;SDS011;3271;51.910;5.840;2022-08-21T01:08:54;4.57;;;3.80;;
6475;SDS011;3271;51.910;5.840;2022-08-21T01:11:20;5.95;;;3.67;;
6475;SDS011;3271;51.910;5.840;2022-08-21T01:13:46;4.35;;;3.85;;
6475;SDS011;3271;51.910;5.840;2022-08-21T01:16:13;5.60;;;4.03;;
6475;SDS011;3271;51.910;5.840;2022-08-21T01:18:41;7.30;;;4.03;;
6475;SDS011;3271;51.910;5.840;2022-08-21T01:21:18;4.85;;;3.30;;
6475;SDS011;3271;51.910;5.840;2022-08-21T01:23:45;5.15;;;3.75;;
6475;SDS011;3271;51.910;5.840;2022-08-21T01:26:12;4.32;;;3.42;;
6475;SDS011;3271;51.910;5.840;2022-08-21T01:28:45;4.68;;;4.25;;
6475;SDS011;3271;51.910;5.840;2022-08-21T01:31:12;7.57;;;3.75;;
6475;SDS011;3271;51.910;5.840;2022-08-21T01:33:39;4.60;;;3.80;;
6475;SDS011;3271;51.910;5.840;2022-08-21T01:36:05;7.45;;;4.20;;
6475;SDS011;3271;51.910;5.840;2022-08-21T01:38:31;7.70;;;4.15;;
6475;SDS011;3271;51.910;5.840;2022-08-21T01:40:57;6.28;;;3.90;;
6475;SDS011;3271;51.910;5.840;2022-08-21T01:43:23;4.78;;;3.40;;
6475;SDS011;3271;51.910;5.840;2022-08-21T01:45:49;4.68;;;3.67;;
6475;SDS011;3271;51.910;5.840;2022-08-21T01:48:16;4.60;;;3.45;;
6475;SDS011;3271;51.910;5.840;2022-08-21T01:50:42;5.45;;;3.83;;
6475;SDS011;3271;51.910;5.840;2022-08-21T01:53:07;4.10;;;3.50;;
6475;SDS011;3271;51.910;5.840;2022-08-21T01:55:33;4.07;;;3.67;;
6475;SDS011;3271;51.910;5.840;2022-08-21T01:58:00;6.63;;;4.10;;
6475;SDS011;3271;51.910;5.840;2022-08-21T02:00:26;6.13;;;3.55;;
6475;SDS011;3271;51.910;5.840;2022-08-21T02:02:52;4.60;;;3.35;;
6475;SDS011;3271;51.910;5.840;2022-08-21T02:05:18;6.20;;;3.97;;
6475;SDS011;3271;51.910;5.840;2022-08-21T02:07:49;4.70;;;3.88;;
6475;SDS011;3271;51.910;5.840;2022-08-21T02:10:16;5.57;;;3.80;;
6475;SDS011;3271;51.910;5.840;2022-08-21T02:12:43;5.93;;;3.88;;
6475;SDS011;3271;51.910;5.840;2022-08-21T02:15:09;5.43;;;4.20;;
6475;SDS011;3271;51.910;5.840;2022-08-21T02:17:39;5.82;;;4.32;;
6475;SDS011;3271;51.910;5.840;2022-08-21T02:20:05;7.32;;;4.53;;
6475;SDS011;3271;51.910;5.840;2022-08-21T02:22:31;6.25;;;4.45;;
6475;SDS011;3271;51.910;5.840;2022-08-21T02:24:57;6.80;;;5.05;;
6475;SDS011;3271;51.910;5.840;2022-08-21T02:27:24;8.57;;;4.60;;
6475;SDS011;3271;51.910;5.840;2022-08-21T02:29:50;5.85;;;4.50;;
6475;SDS011;3271;51.910;5.840;2022-08-21T02:32:16;4.68;;;4.28;;
6475;SDS011;3271;51.910;5.840;2022-08-21T02:34:41;5.28;;;4.78;;
6475;SDS011;3271;51.910;5.840;2022-08-21T02:37:07;5.75;;;4.80;;
6475;SDS011;3271;51.910;5.840;2022-08-21T02:39:33;7.85;;;4.93;;
6475;SDS011;3271;51.910;5.840;2022-08-21T02:41:59;4.60;;;4.20;;
6475;SDS011;3271;51.910;5.840;2022-08-21T02:44:25;8.07;;;5.90;;
6475;SDS011;3271;51.910;5.840;2022-08-21T02:46:51;5.15;;;4.40;;
6475;SDS011;3271;51.910;5.840;2022-08-21T02:49:17;7.40;;;4.88;;
6475;SDS011;3271;51.910;5.840;2022-08-21T02:51:43;5.80;;;4.38;;
6475;SDS011;3271;51.910;5.840;2022-08-21T02:54:09;4.70;;;4.20;;
6475;SDS011;3271;51.910;5.840;2022-08-21T02:56:35;5.90;;;4.57;;
6475;SDS011;3271;51.910;5.840;2022-08-21T02:59:01;6.22;;;5.10;;
6475;SDS011;3271;51.910;5.840;2022-08-21T03:01:27;7.10;;;5.10;;
6475;SDS011;3271;51.910;5.840;2022-08-21T03:03:53;5.78;;;4.95;;
6475;SDS011;3271;51.910;5.840;2022-08-21T03:06:20;8.30;;;4.95;;
6475;SDS011;3271;51.910;5.840;2022-08-21T03:08:47;5.60;;;5.07;;
6475;SDS011;3271;51.910;5.840;2022-08-21T03:11:13;5.85;;;5.25;;
6475;SDS011;3271;51.910;5.840;2022-08-21T03:13:40;5.07;;;4.57;;
6475;SDS011;3271;51.910;5.840;2022-08-21T03:16:06;6.47;;;5.00;;
6475;SDS011;3271;51.910;5.840;2022-08-21T03:18:32;5.95;;;5.45;;
6475;SDS011;3271;51.910;5.840;2022-08-21T03:20:58;4.97;;;4.47;;
6475;SDS011;3271;51.910;5.840;2022-08-21T03:23:24;6.75;;;4.97;;
6475;SDS011;3271;51.910;5.840;2022-08-21T03:25:50;6.60;;;5.10;;
6475;SDS011;3271;51.910;5.840;2022-08-21T03:28:21;4.82;;;4.38;;
6475;SDS011;3271;51.910;5.840;2022-08-21T03:30:48;5.97;;;5.00;;
6475;SDS011;3271;51.910;5.840;2022-08-21T03:33:15;5.43;;;4.93;;
6475;SDS011;3271;51.910;5.840;2022-08-21T03:35:42;5.40;;;4.88;;
6475;SDS011;3271;51.910;5.840;2022-08-21T03:38:08;7.45;;;4.85;;
6475;SDS011;3271;51.910;5.840;2022-08-21T03:40:34;7.18;;;5.40;;
6475;SDS011;3271;51.910;5.840;2022-08-21T03:43:00;5.68;;;5.07;;
6475;SDS011;3271;51.910;5.840;2022-08-21T03:45:26;6.28;;;5.68;;
6475;SDS011;3271;51.910;5.840;2022-08-21T03:47:54;8.40;;;5.03;;
6475;SDS011;3271;51.910;5.840;2022-08-21T03:50:21;5.97;;;5.35;;
6475;SDS011;3271;51.910;5.840;2022-08-21T03:52:47;5.82;;;4.47;;
6475;SDS011;3271;51.910;5.840;2022-08-21T03:55:13;7.68;;;5.38;;
6475;SDS011;3271;51.910;5.840;2022-08-21T03:57:39;7.97;;;5.50;;
6475;SDS011;3271;51.910;5.840;2022-08-21T04:00:06;7.03;;;5.43;;
6475;SDS011;3271;51.910;5.840;2022-08-21T04:02:33;8.95;;;5.53;;
6475;SDS011;3271;51.910;5.840;2022-08-21T04:05:00;5.45;;;4.95;;
6475;SDS011;3271;51.910;5.840;2022-08-21T04:07:26;8.57;;;4.82;;
6475;SDS011;3271;51.910;5.840;2022-08-21T04:09:52;8.38;;;6.43;;
6475;SDS011;3271;51.910;5.840;2022-08-21T04:12:18;5.82;;;5.05;;
6475;SDS011;3271;51.910;5.840;2022-08-21T04:14:44;5.57;;;4.95;;
6475;SDS011;3271;51.910;5.840;2022-08-21T04:17:10;6.10;;;5.32;;
6475;SDS011;3271;51.910;5.840;2022-08-21T04:19:36;7.47;;;5.05;;
6475;SDS011;3271;51.910;5.840;2022-08-21T04:22:02;7.55;;;5.95;;
6475;SDS011;3271;51.910;5.840;2022-08-21T04:24:28;5.35;;;4.63;;
6475;SDS011;3271;51.910;5.840;2022-08-21T04:26:54;6.32;;;5.05;;
6475;SDS011;3271;51.910;5.840;2022-08-21T04:29:19;6.28;;;4.93;;
6475;SDS011;3271;51.910;5.840;2022-08-21T04:31:45;5.95;;;5.40;;
6475;SDS011;3271;51.910;5.840;2022-08-21T04:34:11;8.25;;;5.75;;
6475;SDS011;3271;51.910;5.840;2022-08-21T04:36:38;5.88;;;5.20;;
6475;SDS011;3271;51.910;5.840;2022-08-21T04:39:04;6.93;;;5.60;;
6475;SDS011;3271;51.910;5.840;2022-08-21T04:41:30;7.65;;;5.25;;
6475;SDS011;3271;51.910;5.840;2022-08-21T04:43:56;6.72;;;5.85;;
6475;SDS011;3271;51.910;5.840;2022-08-21T04:46:22;8.13;;;5.90;;
6475;SDS011;3271;51.910;5.840;2022-08-21T04:48:48;6.03;;;5.13;;
6475;SDS011;3271;51.910;5.840;2022-08-21T04:51:34;5.95;;;5.35;;
6475;SDS011;3271;51.910;5.840;2022-08-21T04:54:17;6.25;;;5.18;;
6475;SDS011;3271;51.910;5.840;2022-08-21T04:56:45;6.70;;;5.97;;
6475;SDS011;3271;51.910;5.840;2022-08-21T04:59:19;7.63;;;5.60;;
6475;SDS011;3271;51.910;5.840;2022-08-21T05:01:46;7.80;;;5.97;;
6475;SDS011;3271;51.910;5.840;2022-08-21T05:04:13;6.30;;;5.43;;
6475;SDS011;3271;51.910;5.840;2022-08-21T05:06:40;6.85;;;5.82;;
6475;SDS011;3271;51.910;5.840;2022-08-21T05:09:07;6.75;;;6.10;;
6475;SDS011;3271;51.910;5.840;2022-08-21T05:11:34;6.57;;;5.70;;
6475;SDS011;3271;51.910;5.840;2022-08-21T05:14:00;6.22;;;5.60;;
6475;SDS011;3271;51.910;5.840;2022-08-21T05:16:26;6.65;;;5.65;;
6475;SDS011;3271;51.910;5.840;2022-08-21T05:18:52;6.90;;;5.68;;
6475;SDS011;3271;51.910;5.840;2022-08-21T05:21:18;8.85;;;5.43;;
6475;SDS011;3271;51.910;5.840;2022-08-21T05:23:44;8.73;;;5.70;;
6475;SDS011;3271;51.910;5.840;2022-08-21T05:26:10;6.95;;;6.22;;
6475;SDS011;3271;51.910;5.840;2022-08-21T05:28:36;7.13;;;5.93;;
6475;SDS011;3271;51.910;5.840;2022-08-21T05:31:02;8.15;;;6.78;;
6475;SDS011;3271;51.910;5.840;2022-08-21T05:33:28;7.95;;;6.88;;
6475;SDS011;3271;51.910;5.840;2022-08-21T05:35:54;8.68;;;7.47;;
6475;SDS011;3271;51.910;5.840;2022-08-21T05:38:21;8.82;;;7.80;;
6475;SDS011;3271;51.910;5.840;2022-08-21T05:40:47;9.88;;;7.70;;
6475;SDS011;3271;51.910;5.840;2022-08-21T05:43:12;9.25;;;7.50;;
6475;SDS011;3271;51.910;5.840;2022-08-21T05:45:38;12.55;;;8.70;;
6475;SDS011;3271;51.910;5.840;2022-08-21T05:48:05;10.38;;;8.75;;
6475;SDS011;3271;51.910;5.840;2022-08-21T05:50:32;10.45;;;7.88;;
6475;SDS011;3271;51.910;5.840;2022-08-21T05:52:58;11.18;;;8.75;;
6475;SDS011;3271;51.910;5.840;2022-08-21T05:55:24;9.57;;;8.15;;
6475;SDS011;3271;51.910;5.840;2022-08-21T05:57:50;12.32;;;8.98;;
6475;SDS011;3271;51.910;5.840;2022-08-21T06:00:16;10.18;;;8.60;;
6475;SDS011;3271;51.910;5.840;2022-08-21T06:02:42;9.63;;;8.50;;
6475;SDS011;3271;51.910;5.840;2022-08-21T06:05:08;8.30;;;7.55;;
6475;SDS011;3271;51.910;5.840;2022-08-21T06:07:34;10.65;;;8.00;;
6475;SDS011;3271;51.910;5.840;2022-08-21T06:10:00;8.77;;;7.30;;
6475;SDS011;3271;51.910;5.840;2022-08-21T06:12:26;10.02;;;7.32;;
6475;SDS011;3271;51.910;5.840;2022-08-21T06:14:52;9.05;;;7.10;;
6475;SDS011;3271;51.910;5.840;2022-08-21T06:17:18;10.40;;;7.63;;
6475;SDS011;3271;51.910;5.840;2022-08-21T06:19:44;10.80;;;7.60;;
6475;SDS011;3271;51.910;5.840;2022-08-21T06:22:10;8.18;;;7.03;;
6475;SDS011;3271;51.910;5.840;2022-08-21T06:24:36;8.70;;;6.65;;
6475;SDS011;3271;51.910;5.840;2022-08-21T06:27:06;8.40;;;7.43;;
6475;SDS011;3271;51.910;5.840;2022-08-21T06:29:32;8.55;;;6.75;;
6475;SDS011;3271;51.910;5.840;2022-08-21T06:31:59;8.48;;;6.78;;
6475;SDS011;3271;51.910;5.840;2022-08-21T06:34:25;8.32;;;6.38;;
6475;SDS011;3271;51.910;5.840;2022-08-21T06:36:51;8.48;;;6.13;;
6475;SDS011;3271;51.910;5.840;2022-08-21T06:39:17;8.90;;;6.60;;
6475;SDS011;3271;51.910;5.840;2022-08-21T06:41:43;9.48;;;6.30;;
6475;SDS011;3271;51.910;5.840;2022-08-21T06:44:09;8.45;;;6.78;;
6475;SDS011;3271;51.910;5.840;2022-08-21T06:46:35;9.50;;;6.97;;
6475;SDS011;3271;51.910;5.840;2022-08-21T06:49:01;9.60;;;6.63;;
6475;SDS011;3271;51.910;5.840;2022-08-21T06:51:27;8.18;;;6.57;;
6475;SDS011;3271;51.910;5.840;2022-08-21T06:53:53;8.38;;;6.90;;
6475;SDS011;3271;51.910;5.840;2022-08-21T06:56:19;12.45;;;7.63;;
6475;SDS011;3271;51.910;5.840;2022-08-21T06:58:45;11.68;;;7.50;;
6475;SDS011;3271;51.910;5.840;2022-08-21T07:01:11;10.23;;;6.20;;
6475;SDS011;3271;51.910;5.840;2022-08-21T07:03:38;10.75;;;6.38;;
6475;SDS011;3271;51.910;5.840;2022-08-21T07:06:05;11.45;;;7.03;;
6475;SDS011;3271;51.910;5.840;2022-08-21T07:08:31;10.23;;;6.93;;
6475;SDS011;3271;51.910;5.840;2022-08-21T07:10:58;9.68;;;6.05;;
6475;SDS011;3271;51.910;5.840;2022-08-21T07:13:25;7.53;;;5.10;;
6475;SDS011;3271;51.910;5.840;2022-08-21T07:15:51;13.27;;;6.95;;
6475;SDS011;3271;51.910;5.840;2022-08-21T07:18:17;8.27;;;5.60;;
6475;SDS011;3271;51.910;5.840;2022-08-21T07:20:43;11.23;;;6.35;;
6475;SDS011;3271;51.910;5.840;2022-08-21T07:23:22;11.23;;;5.78;;
6475;SDS011;3271;51.910;5.840;2022-08-21T07:25:48;14.70;;;6.55;;
6475;SDS011;3271;51.910;5.840;2022-08-21T07:28:14;12.75;;;7.18;;
6475;SDS011;3271;51.910;5.840;2022-08-21T07:30:40;11.30;;;6.88;;
6475;SDS011;3271;51.910;5.840;2022-08-21T07:33:06;8.20;;;5.88;;
6475;SDS011;3271;51.910;5.840;2022-08-21T07:35:32;12.05;;;6.60;;
6475;SDS011;3271;51.910;5.840;2022-08-21T07:37:58;13.10;;;6.85;;
6475;SDS011;3271;51.910;5.840;2022-08-21T07:40:24;11.18;;;5.97;;
6475;SDS011;3271;51.910;5.840;2022-08-21T07:42:50;10.40;;;6.57;;
6475;SDS011;3271;51.910;5.840;2022-08-21T07:45:17;11.88;;;6.22;;
6475;SDS011;3271;51.910;5.840;2022-08-21T07:47:43;9.45;;;6.38;;
6475;SDS011;3271;51.910;5.840;2022-08-21T07:50:10;14.10;;;8.35;;
6475;SDS011;3271;51.910;5.840;2022-08-21T07:52:37;10.15;;;6.65;;
6475;SDS011;3271;51.910;5.840;2022-08-21T07:55:03;12.63;;;6.47;;
6475;SDS011;3271;51.910;5.840;2022-08-21T07:57:29;8.48;;;5.85;;
6475;SDS011;3271;51.910;5.840;2022-08-21T07:59:55;11.13;;;6.57;;
6475;SDS011;3271;51.910;5.840;2022-08-21T08:02:25;10.15;;;6.45;;
6475;SDS011;3271;51.910;5.840;2022-08-21T08:04:52;10.00;;;6.00;;
6475;SDS011;3271;51.910;5.840;2022-08-21T08:07:18;11.40;;;6.50;;
6475;SDS011;3271;51.910;5.840;2022-08-21T08:09:44;9.38;;;5.78;;
6475;SDS011;3271;51.910;5.840;2022-08-21T08:12:10;13.25;;;6.68;;
6475;SDS011;3271;51.910;5.840;2022-08-21T08:14:36;8.52;;;5.13;;
6475;SDS011;3271;51.910;5.840;2022-08-21T08:17:02;8.02;;;5.40;;
6475;SDS011;3271;51.910;5.840;2022-08-21T08:19:28;7.38;;;5.28;;
6475;SDS011;3271;51.910;5.840;2022-08-21T08:21:55;11.40;;;6.22;;
6475;SDS011;3271;51.910;5.840;2022-08-21T08:24:21;10.45;;;5.50;;
6475;SDS011;3271;51.910;5.840;2022-08-21T08:26:47;12.68;;;5.72;;
6475;SDS011;3271;51.910;5.840;2022-08-21T08:29:13;11.95;;;6.05;;
6475;SDS011;3271;51.910;5.840;2022-08-21T08:31:39;12.38;;;6.30;;
6475;SDS011;3271;51.910;5.840;2022-08-21T08:34:05;9.93;;;4.82;;
6475;SDS011;3271;51.910;5.840;2022-08-21T08:36:32;9.75;;;4.63;;
6475;SDS011;3271;51.910;5.840;2022-08-21T08:38:59;7.72;;;5.13;;
6475;SDS011;3271;51.910;5.840;2022-08-21T08:41:25;11.60;;;5.32;;
6475;SDS011;3271;51.910;5.840;2022-08-21T08:43:52;10.80;;;5.57;;
6475;SDS011;3271;51.910;5.840;2022-08-21T08:46:21;9.93;;;4.93;;
6475;SDS011;3271;51.910;5.840;2022-08-21T08:51:50;9.57;;;4.53;;
6475;SDS011;3271;51.910;5.840;2022-08-21T08:54:10;10.98;;;4.40;;
6475;SDS011;3271;51.910;5.840;2022-08-21T08:56:37;11.05;;;4.85;;
6475;SDS011;3271;51.910;5.840;2022-08-21T08:59:09;11.57;;;4.95;;
6475;SDS011;3271;51.910;5.840;2022-08-21T09:01:38;13.40;;;4.50;;
6475;SDS011;3271;51.910;5.840;2022-08-21T09:04:05;9.00;;;4.05;;
6475;SDS011;3271;51.910;5.840;2022-08-21T09:06:37;9.32;;;4.47;;
6475;SDS011;3271;51.910;5.840;2022-08-21T09:09:09;9.23;;;4.18;;
6475;SDS011;3271;51.910;5.840;2022-08-21T09:11:41;9.50;;;4.60;;
6475;SDS011;3271;51.910;5.840;2022-08-21T09:14:16;10.88;;;3.95;;
6475;SDS011;3271;51.910;5.840;2022-08-21T09:16:55;6.30;;;3.60;;
6475;SDS011;3271;51.910;5.840;2022-08-21T09:27:43;8.77;;;3.35;;
6475;SDS011;3271;51.910;5.840;2022-08-21T09:30:09;8.73;;;3.50;;
6475;SDS011;3271;51.910;5.840;2022-08-21T09:32:36;9.15;;;3.53;;
6475;SDS011;3271;51.910;5.840;2022-08-21T09:35:19;12.15;;;7.95;;
6475;SDS011;3271;51.910;5.840;2022-08-21T09:40:28;9.90;;;3.22;;
6475;SDS011;3271;51.910;5.840;2022-08-21T09:43:00;5.53;;;2.70;;
6475;SDS011;3271;51.910;5.840;2022-08-21T09:45:26;6.13;;;2.88;;
6475;SDS011;3271;51.910;5.840;2022-08-21T09:47:52;6.47;;;2.70;;
6475;SDS011;3271;51.910;5.840;2022-08-21T09:50:23;6.93;;;2.72;;
6475;SDS011;3271;51.910;5.840;2022-08-21T09:52:51;5.95;;;2.55;;
6475;SDS011;3271;51.910;5.840;2022-08-21T09:56:01;6.65;;;3.20;;
6475;SDS011;3271;51.910;5.840;2022-08-21T09:58:30;8.70;;;2.75;;
6475;SDS011;3271;51.910;5.840;2022-08-21T10:00:58;6.57;;;2.50;;
6475;SDS011;3271;51.910;5.840;2022-08-21T10:03:24;4.00;;;2.33;;
6475;SDS011;3271;51.910;5.840;2022-08-21T10:05:56;9.13;;;2.92;;
6475;SDS011;3271;51.910;5.840;2022-08-21T10:08:22;5.35;;;2.28;;
6475;SDS011;3271;51.910;5.840;2022-08-21T10:10:54;8.07;;;2.92;;
6475;SDS011;3271;51.910;5.840;2022-08-21T10:13:23;6.07;;;2.30;;
6475;SDS011;3271;51.910;5.840;2022-08-21T10:16:08;6.05;;;2.53;;
6475;SDS011;3271;51.910;5.840;2022-08-21T10:18:39;6.60;;;2.63;;
6475;SDS011;3271;51.910;5.840;2022-08-21T10:21:23;5.85;;;2.40;;
6475;SDS011;3271;51.910;5.840;2022-08-21T10:24:01;7.15;;;2.85;;
6475;SDS011;3271;51.910;5.840;2022-08-21T10:26:31;6.20;;;2.22;;
6475;SDS011;3271;51.910;5.840;2022-08-21T10:31:37;7.63;;;2.50;;
6475;SDS011;3271;51.910;5.840;2022-08-21T10:37:13;5.28;;;2.55;;
6475;SDS011;3271;51.910;5.840;2022-08-21T10:42:49;7.72;;;2.30;;
6475;SDS011;3271;51.910;5.840;2022-08-21T10:47:47;6.38;;;2.60;;
6475;SDS011;3271;51.910;5.840;2022-08-21T10:58:45;5.75;;;1.95;;
6475;SDS011;3271;51.910;5.840;2022-08-21T11:01:15;5.07;;;1.90;;
6475;SDS011;3271;51.910;5.840;2022-08-21T11:03:43;4.30;;;2.13;;
6475;SDS011;3271;51.910;5.840;2022-08-21T11:06:20;5.97;;;2.72;;
6475;SDS011;3271;51.910;5.840;2022-08-21T11:08:51;7.18;;;2.53;;
6475;SDS011;3271;51.910;5.840;2022-08-21T11:13:49;5.43;;;1.83;;
6475;SDS011;3271;51.910;5.840;2022-08-21T11:16:21;6.25;;;2.13;;
6475;SDS011;3271;51.910;5.840;2022-08-21T11:18:50;8.93;;;2.47;;
6475;SDS011;3271;51.910;5.840;2022-08-21T11:21:36;6.53;;;2.42;;
6475;SDS011;3271;51.910;5.840;2022-08-21T11:24:28;3.03;;;2.10;;
6475;SDS011;3271;51.910;5.840;2022-08-21T11:29:37;11.88;;;2.38;;
6475;SDS011;3271;51.910;5.840;2022-08-21T11:34:38;4.53;;;2.22;;
6475;SDS011;3271;51.910;5.840;2022-08-21T11:37:10;3.25;;;1.90;;
6475;SDS011;3271;51.910;5.840;2022-08-21T11:39:45;5.13;;;1.80;;
6475;SDS011;3271;51.910;5.840;2022-08-21T11:47:21;4.70;;;1.88;;
6475;SDS011;3271;51.910;5.840;2022-08-21T11:49:57;4.70;;;1.73;;
6475;SDS011;3271;51.910;5.840;2022-08-21T11:54:57;3.83;;;2.58;;
6475;SDS011;3271;51.910;5.840;2022-08-21T11:57:36;6.70;;;2.70;;
6475;SDS011;3271;51.910;5.840;2022-08-21T12:00:16;7.25;;;3.30;;
6475;SDS011;3271;51.910;5.840;2022-08-21T12:02:47;5.68;;;2.13;;
6475;SDS011;3271;51.910;5.840;2022-08-21T12:05:25;3.03;;;1.80;;
6475;SDS011;3271;51.910;5.840;2022-08-21T12:08:11;4.63;;;1.85;;
6475;SDS011;3271;51.910;5.840;2022-08-21T12:10:39;3.45;;;2.17;;
6475;SDS011;3271;51.910;5.840;2022-08-21T12:13:10;6.15;;;2.15;;
6475;SDS011;3271;51.910;5.840;2022-08-21T12:15:38;3.45;;;1.27;;
6475;SDS011;3271;51.910;5.840;2022-08-21T12:18:05;4.65;;;1.70;;
6475;SDS011;3271;51.910;5.840;2022-08-21T12:26:10;3.78;;;1.83;;
6475;SDS011;3271;51.910;5.840;2022-08-21T12:28:28;3.28;;;1.67;;
6475;SDS011;3271;51.910;5.840;2022-08-21T12:30:55;3.28;;;1.77;;
6475;SDS011;3271;51.910;5.840;2022-08-21T12:35:47;4.00;;;1.80;;
6475;SDS011;3271;51.910;5.840;2022-08-21T12:38:26;3.85;;;1.58;;
6475;SDS011;3271;51.910;5.840;2022-08-21T12:41:00;4.07;;;1.75;;
6475;SDS011;3271;51.910;5.840;2022-08-21T12:43:33;3.83;;;1.70;;
6475;SDS011;3271;51.910;5.840;2022-08-21T12:46:01;3.53;;;2.00;;
6475;SDS011;3271;51.910;5.840;2022-08-21T12:48:31;4.30;;;1.42;;
6475;SDS011;3271;51.910;5.840;2022-08-21T12:51:07;3.58;;;1.73;;
6475;SDS011;3271;51.910;5.840;2022-08-21T12:53:45;5.10;;;1.80;;
6475;SDS011;3271;51.910;5.840;2022-08-21T12:56:14;4.60;;;1.60;;
6475;SDS011;3271;51.910;5.840;2022-08-21T12:58:44;4.28;;;1.63;;
6475;SDS011;3271;51.910;5.840;2022-08-21T13:01:19;2.92;;;1.33;;
6475;SDS011;3271;51.910;5.840;2022-08-21T13:03:46;5.10;;;1.70;;
6475;SDS011;3271;51.910;5.840;2022-08-21T13:06:14;5.38;;;1.70;;
6475;SDS011;3271;51.910;5.840;2022-08-21T13:08:41;3.25;;;1.45;;
6475;SDS011;3271;51.910;5.840;2022-08-21T13:11:08;7.20;;;1.67;;
6475;SDS011;3271;51.910;5.840;2022-08-21T13:13:35;2.15;;;1.23;;
6475;SDS011;3271;51.910;5.840;2022-08-21T13:16:05;4.70;;;1.40;;
6475;SDS011;3271;51.910;5.840;2022-08-21T13:18:33;2.47;;;1.42;;
6475;SDS011;3271;51.910;5.840;2022-08-21T13:21:09;2.97;;;1.27;;
6475;SDS011;3271;51.910;5.840;2022-08-21T13:23:35;3.55;;;1.40;;
6475;SDS011;3271;51.910;5.840;2022-08-21T13:26:11;4.38;;;2.60;;
6475;SDS011;3271;51.910;5.840;2022-08-21T13:28:37;3.83;;;1.45;;
6475;SDS011;3271;51.910;5.840;2022-08-21T13:31:05;3.85;;;1.40;;
6475;SDS011;3271;51.910;5.840;2022-08-21T13:33:33;4.07;;;1.52;;
6475;SDS011;3271;51.910;5.840;2022-08-21T13:38:26;4.20;;;1.40;;
6475;SDS011;3271;51.910;5.840;2022-08-21T13:40:55;3.90;;;1.75;;
6475;SDS011;3271;51.910;5.840;2022-08-21T13:43:22;3.42;;;1.70;;
6475;SDS011;3271;51.910;5.840;2022-08-21T13:45:53;3.00;;;1.90;;
6475;SDS011;3271;51.910;5.840;2022-08-21T13:48:19;2.65;;;1.38;;
6475;SDS011;3271;51.910;5.840;2022-08-21T13:50:46;4.47;;;1.90;;
6475;SDS011;3271;51.910;5.840;2022-08-21T13:55:47;2.22;;;1.25;;
6475;SDS011;3271;51.910;5.840;2022-08-21T13:58:22;4.50;;;1.48;;
6475;SDS011;3271;51.910;5.840;2022-08-21T14:00:49;4.18;;;1.60;;
6475;SDS011;3271;51.910;5.840;2022-08-21T14:03:36;3.58;;;1.30;;
6475;SDS011;3271;51.910;5.840;2022-08-21T14:06:10;3.70;;;1.60;;
6475;SDS011;3271;51.910;5.840;2022-08-21T14:08:37;4.53;;;1.38;;
6475;SDS011;3271;51.910;5.840;2022-08-21T14:11:05;2.70;;;1.40;;
6475;SDS011;3271;51.910;5.840;2022-08-21T14:13:42;2.72;;;1.50;;
6475;SDS011;3271;51.910;5.840;2022-08-21T14:18:48;5.15;;;1.48;;
6475;SDS011;3271;51.910;5.840;2022-08-21T14:21:22;2.45;;;1.60;;
6475;SDS011;3271;51.910;5.840;2022-08-21T14:24:10;3.97;;;2.00;;
6475;SDS011;3271;51.910;5.840;2022-08-21T14:26:44;2.85;;;1.48;;
6475;SDS011;3271;51.910;5.840;2022-08-21T14:29:11;4.75;;;1.92;;
6475;SDS011;3271;51.910;5.840;2022-08-21T14:31:38;1.80;;;1.10;;
6475;SDS011;3271;51.910;5.840;2022-08-21T14:34:04;2.15;;;1.40;;
6475;SDS011;3271;51.910;5.840;2022-08-21T14:36:30;3.63;;;1.75;;
6475;SDS011;3271;51.910;5.840;2022-08-21T14:38:56;3.90;;;1.88;;
6475;SDS011;3271;51.910;5.840;2022-08-21T14:41:23;5.53;;;1.85;;
6475;SDS011;3271;51.910;5.840;2022-08-21T14:43:50;4.63;;;1.27;;
6475;SDS011;3271;51.910;5.840;2022-08-21T14:46:18;3.25;;;1.50;;
6475;SDS011;3271;51.910;5.840;2022-08-21T14:48:45;4.68;;;1.50;;
6475;SDS011;3271;51.910;5.840;2022-08-21T14:51:12;4.22;;;1.50;;
6475;SDS011;3271;51.910;5.840;2022-08-21T14:53:38;4.20;;;1.58;;
6475;SDS011;3271;51.910;5.840;2022-08-21T14:56:04;3.60;;;1.40;;
6475;SDS011;3271;51.910;5.840;2022-08-21T14:58:31;3.40;;;1.23;;
6475;SDS011;3271;51.910;5.840;2022-08-21T15:00:57;2.33;;;1.45;;
6475;SDS011;3271;51.910;5.840;2022-08-21T15:03:28;3.25;;;1.50;;
6475;SDS011;3271;51.910;5.840;2022-08-21T15:05:54;2.47;;;1.40;;
6475;SDS011;3271;51.910;5.840;2022-08-21T15:08:19;4.35;;;1.45;;
6475;SDS011;3271;51.910;5.840;2022-08-21T15:10:45;2.42;;;1.50;;
6475;SDS011;3271;51.910;5.840;2022-08-21T15:13:11;1.45;;;1.35;;
6475;SDS011;3271;51.910;5.840;2022-08-21T15:15:40;4.57;;;1.30;;
6475;SDS011;3271;51.910;5.840;2022-08-21T15:18:06;3.80;;;1.50;;
6475;SDS011;3271;51.910;5.840;2022-08-21T15:20:32;4.78;;;1.55;;
6475;SDS011;3271;51.910;5.840;2022-08-21T15:22:58;5.18;;;2.10;;
6475;SDS011;3271;51.910;5.840;2022-08-21T15:25:24;4.03;;;1.35;;
6475;SDS011;3271;51.910;5.840;2022-08-21T15:27:50;2.15;;;1.25;;
6475;SDS011;3271;51.910;5.840;2022-08-21T15:30:16;3.75;;;1.20;;
6475;SDS011;3271;51.910;5.840;2022-08-21T15:32:42;6.22;;;1.42;;
6475;SDS011;3271;51.910;5.840;2022-08-21T15:35:09;2.13;;;1.27;;
6475;SDS011;3271;51.910;5.840;2022-08-21T15:37:35;5.40;;;1.42;;
6475;SDS011;3271;51.910;5.840;2022-08-21T15:40:01;3.97;;;1.65;;
6475;SDS011;3271;51.910;5.840;2022-08-21T15:42:27;6.28;;;1.60;;
6475;SDS011;3271;51.910;5.840;2022-08-21T15:44:53;2.08;;;1.20;;
6475;SDS011;3271;51.910;5.840;2022-08-21T15:47:30;3.83;;;1.20;;
6475;SDS011;3271;51.910;5.840;2022-08-21T15:49:58;3.45;;;1.30;;
6475;SDS011;3271;51.910;5.840;2022-08-21T15:52:24;4.55;;;1.50;;
6475;SDS011;3271;51.910;5.840;2022-08-21T15:54:50;4.13;;;1.40;;
6475;SDS011;3271;51.910;5.840;2022-08-21T15:57:17;4.95;;;1.60;;
6475;SDS011;3271;51.910;5.840;2022-08-21T15:59:45;3.65;;;1.73;;
6475;SDS011;3271;51.910;5.840;2022-08-21T16:02:19;2.50;;;1.40;;
6475;SDS011;3271;51.910;5.840;2022-08-21T16:04:45;3.70;;;1.70;;
6475;SDS011;3271;51.910;5.840;2022-08-21T16:07:11;3.50;;;1.40;;
6475;SDS011;3271;51.910;5.840;2022-08-21T16:09:37;4.63;;;1.65;;
6475;SDS011;3271;51.910;5.840;2022-08-21T16:12:03;3.40;;;1.50;;
6475;SDS011;3271;51.910;5.840;2022-08-21T16:14:30;2.90;;;1.48;;
6475;SDS011;3271;51.910;5.840;2022-08-21T16:16:56;5.63;;;1.45;;
6475;SDS011;3271;51.910;5.840;2022-08-21T16:19:23;3.85;;;1.65;;
6475;SDS011;3271;51.910;5.840;2022-08-21T16:21:49;5.43;;;1.85;;